sensor_id;sensor_type;location;lat;lon;timestamp;P1;durP1;ratioP1;P2;durP2;ratioP2
38238;SDS011;24035;48.900;9.188;2022-09-03T00:02:44;0.95;;;0.43;;
38238;SDS011;24035;48.900;9.188;2022-09-03T00:05:42;7.15;;;0.60;;
38238;SDS011;24035;48.900;9.188;2022-09-03T00:09:02;3.03;;;0.50;;
38238;SDS011;24035;48.900;9.188;2022-09-03T00:12:25;1.58;;;0.52;;
38238;SDS011;24035;48.900;9.188;2022-09-03T00:15:15;0.85;;;0.40;;
38238;SDS011;24035;48.900;9.188;2022-09-03T00:18:08;2.88;;;0.50;;
38238;SDS011;24035;48.900;9.188;2022-09-03T00:21:01;1.15;;;0.50;;
38238;SDS011;24035;48.900;9.188;2022-09-03T00:23:52;1.15;;;0.50;;
38238;SDS011;24035;48.900;9.188;2022-09-03T00:26:44;1.10;;;0.40;;
38238;SDS011;24035;48.900;9.188;2022-09-03T00:32:27;0.95;;;0.43;;
38238;SDS011;24035;48.900;9.188;2022-09-03T00:35:43;1.55;;;0.50;;
38238;SDS011;24035;48.900;9.188;2022-09-03T00:38:33;1.50;;;0.40;;
38238;SDS011;24035;48.900;9.188;2022-09-03T00:44:18;1.45;;;0.43;;
38238;SDS011;24035;48.900;9.188;2022-09-03T00:47:23;5.78;;;0.73;;
38238;SDS011;24035;48.900;9.188;2022-09-03T00:50:25;1.65;;;0.60;;
38238;SDS011;24035;48.900;9.188;2022-09-03T01:15:21;2.05;;;0.45;;
38238;SDS011;24035;48.900;9.188;2022-09-03T01:21:44;1.40;;;0.40;;
38238;SDS011;24035;48.900;9.188;2022-09-03T01:24:59;2.00;;;0.60;;
38238;SDS011;24035;48.900;9.188;2022-09-03T01:30:44;2.13;;;0.60;;
38238;SDS011;24035;48.900;9.188;2022-09-03T01:33:36;1.30;;;0.57;;
38238;SDS011;24035;48.900;9.188;2022-09-03T01:36:51;2.35;;;0.50;;
38238;SDS011;24035;48.900;9.188;2022-09-03T01:39:44;1.13;;;0.45;;
38238;SDS011;24035;48.900;9.188;2022-09-03T01:46:02;2.15;;;0.80;;
38238;SDS011;24035;48.900;9.188;2022-09-03T01:49:01;1.70;;;0.57;;
38238;SDS011;24035;48.900;9.188;2022-09-03T01:52:14;0.88;;;0.30;;
38238;SDS011;24035;48.900;9.188;2022-09-03T01:55:22;1.55;;;0.45;;
38238;SDS011;24035;48.900;9.188;2022-09-03T01:58:17;2.10;;;0.70;;
38238;SDS011;24035;48.900;9.188;2022-09-03T02:01:16;1.83;;;0.60;;
38238;SDS011;24035;48.900;9.188;2022-09-03T02:04:19;3.85;;;1.05;;
38238;SDS011;24035;48.900;9.188;2022-09-03T02:07:07;1.40;;;0.47;;
38238;SDS011;24035;48.900;9.188;2022-09-03T02:09:53;2.20;;;0.98;;
38238;SDS011;24035;48.900;9.188;2022-09-03T02:12:39;0.90;;;0.35;;
38238;SDS011;24035;48.900;9.188;2022-09-03T02:15:30;1.13;;;0.45;;
38238;SDS011;24035;48.900;9.188;2022-09-03T02:18:22;1.15;;;0.50;;
38238;SDS011;24035;48.900;9.188;2022-09-03T02:21:12;1.17;;;0.40;;
38238;SDS011;24035;48.900;9.188;2022-09-03T02:24:02;1.13;;;0.45;;
38238;SDS011;24035;48.900;9.188;2022-09-03T02:26:49;2.95;;;0.47;;
38238;SDS011;24035;48.900;9.188;2022-09-03T02:29:35;1.10;;;0.50;;
38238;SDS011;24035;48.900;9.188;2022-09-03T02:32:21;2.28;;;0.65;;
38238;SDS011;24035;48.900;9.188;2022-09-03T02:35:07;1.20;;;0.50;;
38238;SDS011;24035;48.900;9.188;2022-09-03T02:37:53;1.23;;;0.40;;
38238;SDS011;24035;48.900;9.188;2022-09-03T02:40:39;1.38;;;0.50;;
38238;SDS011;24035;48.900;9.188;2022-09-03T02:46:33;1.58;;;0.60;;
38238;SDS011;24035;48.900;9.188;2022-09-03T02:49:28;0.93;;;0.45;;
38238;SDS011;24035;48.900;9.188;2022-09-03T02:52:14;1.95;;;0.60;;
38238;SDS011;24035;48.900;9.188;2022-09-03T02:55:01;0.77;;;0.32;;
38238;SDS011;24035;48.900;9.188;2022-09-03T02:57:46;0.68;;;0.30;;
38238;SDS011;24035;48.900;9.188;2022-09-03T03:00:33;1.85;;;0.57;;
38238;SDS011;24035;48.900;9.188;2022-09-03T03:03:20;2.58;;;0.50;;
38238;SDS011;24035;48.900;9.188;2022-09-03T03:06:06;3.60;;;0.50;;
38238;SDS011;24035;48.900;9.188;2022-09-03T03:08:52;2.42;;;0.70;;
38238;SDS011;24035;48.900;9.188;2022-09-03T03:11:42;0.98;;;0.43;;
38238;SDS011;24035;48.900;9.188;2022-09-03T03:14:28;1.60;;;0.40;;
38238;SDS011;24035;48.900;9.188;2022-09-03T03:17:14;1.70;;;0.50;;
38238;SDS011;24035;48.900;9.188;2022-09-03T03:20:00;1.40;;;0.50;;
38238;SDS011;24035;48.900;9.188;2022-09-03T03:22:46;2.22;;;0.80;;
38238;SDS011;24035;48.900;9.188;2022-09-03T03:25:32;1.20;;;0.60;;
38238;SDS011;24035;48.900;9.188;2022-09-03T03:28:23;1.83;;;0.68;;
38238;SDS011;24035;48.900;9.188;2022-09-03T03:31:10;6.80;;;0.60;;
38238;SDS011;24035;48.900;9.188;2022-09-03T03:33:58;1.17;;;0.40;;
38238;SDS011;24035;48.900;9.188;2022-09-03T03:36:46;0.93;;;0.40;;
38238;SDS011;24035;48.900;9.188;2022-09-03T03:39:32;1.55;;;0.60;;
38238;SDS011;24035;48.900;9.188;2022-09-03T03:42:17;3.42;;;0.40;;
38238;SDS011;24035;48.900;9.188;2022-09-03T03:45:04;1.35;;;0.50;;
38238;SDS011;24035;48.900;9.188;2022-09-03T03:47:50;1.42;;;0.50;;
38238;SDS011;24035;48.900;9.188;2022-09-03T03:50:36;2.60;;;0.63;;
38238;SDS011;24035;48.900;9.188;2022-09-03T03:53:22;1.33;;;0.40;;
38238;SDS011;24035;48.900;9.188;2022-09-03T03:56:10;2.92;;;0.50;;
38238;SDS011;24035;48.900;9.188;2022-09-03T03:58:58;1.17;;;0.45;;
38238;SDS011;24035;48.900;9.188;2022-09-03T04:01:44;1.92;;;0.60;;
38238;SDS011;24035;48.900;9.188;2022-09-03T04:04:30;1.45;;;0.50;;
38238;SDS011;24035;48.900;9.188;2022-09-03T04:07:16;1.65;;;0.80;;
38238;SDS011;24035;48.900;9.188;2022-09-03T04:10:01;2.15;;;0.50;;
38238;SDS011;24035;48.900;9.188;2022-09-03T04:12:48;2.03;;;0.50;;
38238;SDS011;24035;48.900;9.188;2022-09-03T04:15:33;2.80;;;0.60;;
38238;SDS011;24035;48.900;9.188;2022-09-03T04:18:21;1.17;;;0.40;;
38238;SDS011;24035;48.900;9.188;2022-09-03T04:21:08;1.35;;;0.43;;
38238;SDS011;24035;48.900;9.188;2022-09-03T04:23:56;1.13;;;0.40;;
38238;SDS011;24035;48.900;9.188;2022-09-03T04:26:42;1.27;;;0.50;;
38238;SDS011;24035;48.900;9.188;2022-09-03T04:29:28;2.95;;;0.60;;
38238;SDS011;24035;48.900;9.188;2022-09-03T04:32:15;2.13;;;0.70;;
38238;SDS011;24035;48.900;9.188;2022-09-03T04:35:20;1.13;;;0.47;;
38238;SDS011;24035;48.900;9.188;2022-09-03T04:38:06;1.95;;;0.70;;
38238;SDS011;24035;48.900;9.188;2022-09-03T04:40:52;1.08;;;0.40;;
38238;SDS011;24035;48.900;9.188;2022-09-03T04:43:38;1.77;;;0.60;;
38238;SDS011;24035;48.900;9.188;2022-09-03T04:46:28;2.25;;;0.52;;
38238;SDS011;24035;48.900;9.188;2022-09-03T04:49:17;1.45;;;0.65;;
38238;SDS011;24035;48.900;9.188;2022-09-03T04:52:04;2.28;;;0.63;;
38238;SDS011;24035;48.900;9.188;2022-09-03T04:54:49;1.15;;;0.50;;
38238;SDS011;24035;48.900;9.188;2022-09-03T04:57:35;1.42;;;0.50;;
38238;SDS011;24035;48.900;9.188;2022-09-03T05:00:22;3.58;;;0.90;;
38238;SDS011;24035;48.900;9.188;2022-09-03T05:03:08;3.10;;;0.60;;
38238;SDS011;24035;48.900;9.188;2022-09-03T05:05:54;3.35;;;0.70;;
38238;SDS011;24035;48.900;9.188;2022-09-03T05:08:40;1.42;;;0.60;;
38238;SDS011;24035;48.900;9.188;2022-09-03T05:11:27;2.03;;;0.60;;
38238;SDS011;24035;48.900;9.188;2022-09-03T05:14:13;2.35;;;0.47;;
38238;SDS011;24035;48.900;9.188;2022-09-03T05:16:59;2.25;;;0.70;;
38238;SDS011;24035;48.900;9.188;2022-09-03T05:19:45;2.42;;;0.50;;
38238;SDS011;24035;48.900;9.188;2022-09-03T05:22:31;2.53;;;0.75;;
38238;SDS011;24035;48.900;9.188;2022-09-03T05:25:17;3.45;;;0.80;;
38238;SDS011;24035;48.900;9.188;2022-09-03T05:28:03;1.02;;;0.50;;
38238;SDS011;24035;48.900;9.188;2022-09-03T05:30:59;1.77;;;0.70;;
38238;SDS011;24035;48.900;9.188;2022-09-03T05:33:47;2.30;;;0.70;;
38238;SDS011;24035;48.900;9.188;2022-09-03T05:36:36;2.22;;;0.90;;
38238;SDS011;24035;48.900;9.188;2022-09-03T05:39:22;1.83;;;0.50;;
38238;SDS011;24035;48.900;9.188;2022-09-03T05:42:08;2.25;;;0.60;;
38238;SDS011;24035;48.900;9.188;2022-09-03T05:44:54;1.35;;;0.50;;
38238;SDS011;24035;48.900;9.188;2022-09-03T05:47:41;1.42;;;0.50;;
38238;SDS011;24035;48.900;9.188;2022-09-03T05:50:27;2.30;;;0.88;;
38238;SDS011;24035;48.900;9.188;2022-09-03T05:53:13;2.22;;;0.80;;
38238;SDS011;24035;48.900;9.188;2022-09-03T05:56:00;1.85;;;0.60;;
38238;SDS011;24035;48.900;9.188;2022-09-03T05:58:48;2.35;;;1.40;;
38238;SDS011;24035;48.900;9.188;2022-09-03T06:01:36;1.75;;;0.60;;
38238;SDS011;24035;48.900;9.188;2022-09-03T06:04:24;1.80;;;0.70;;
38238;SDS011;24035;48.900;9.188;2022-09-03T06:07:10;2.90;;;1.00;;
38238;SDS011;24035;48.900;9.188;2022-09-03T06:09:56;1.25;;;0.50;;
38238;SDS011;24035;48.900;9.188;2022-09-03T06:12:42;1.45;;;0.60;;
38238;SDS011;24035;48.900;9.188;2022-09-03T06:15:30;10.77;;;0.60;;
38238;SDS011;24035;48.900;9.188;2022-09-03T06:18:17;3.70;;;0.60;;
38238;SDS011;24035;48.900;9.188;2022-09-03T06:21:04;1.75;;;0.60;;
38238;SDS011;24035;48.900;9.188;2022-09-03T06:23:52;1.30;;;0.50;;
38238;SDS011;24035;48.900;9.188;2022-09-03T06:26:42;2.42;;;0.93;;
38238;SDS011;24035;48.900;9.188;2022-09-03T06:29:29;1.50;;;0.60;;
38238;SDS011;24035;48.900;9.188;2022-09-03T06:32:15;1.08;;;0.52;;
38238;SDS011;24035;48.900;9.188;2022-09-03T06:35:01;1.92;;;0.70;;
38238;SDS011;24035;48.900;9.188;2022-09-03T06:37:47;2.13;;;0.52;;
38238;SDS011;24035;48.900;9.188;2022-09-03T06:40:33;3.85;;;0.70;;
38238;SDS011;24035;48.900;9.188;2022-09-03T06:43:19;2.03;;;0.73;;
38238;SDS011;24035;48.900;9.188;2022-09-03T06:46:07;1.38;;;0.50;;
38238;SDS011;24035;48.900;9.188;2022-09-03T06:48:54;1.67;;;0.70;;
38238;SDS011;24035;48.900;9.188;2022-09-03T06:51:41;1.45;;;0.60;;
38238;SDS011;24035;48.900;9.188;2022-09-03T06:54:28;1.67;;;0.63;;
38238;SDS011;24035;48.900;9.188;2022-09-03T06:57:14;1.95;;;0.73;;
38238;SDS011;24035;48.900;9.188;2022-09-03T07:00:00;4.20;;;0.80;;
38238;SDS011;24035;48.900;9.188;2022-09-03T07:02:48;6.10;;;0.80;;
38238;SDS011;24035;48.900;9.188;2022-09-03T07:05:42;3.13;;;0.90;;
38238;SDS011;24035;48.900;9.188;2022-09-03T07:08:28;2.63;;;0.80;;
38238;SDS011;24035;48.900;9.188;2022-09-03T07:11:17;2.10;;;0.70;;
38238;SDS011;24035;48.900;9.188;2022-09-03T07:14:06;3.00;;;0.70;;
38238;SDS011;24035;48.900;9.188;2022-09-03T07:16:53;1.90;;;0.70;;
38238;SDS011;24035;48.900;9.188;2022-09-03T07:19:39;3.10;;;0.80;;
38238;SDS011;24035;48.900;9.188;2022-09-03T07:22:24;5.63;;;1.08;;
38238;SDS011;24035;48.900;9.188;2022-09-03T07:25:10;1.48;;;0.63;;
38238;SDS011;24035;48.900;9.188;2022-09-03T07:27:56;1.75;;;0.75;;
38238;SDS011;24035;48.900;9.188;2022-09-03T07:30:42;1.98;;;0.70;;
38238;SDS011;24035;48.900;9.188;2022-09-03T07:33:28;3.10;;;0.80;;
38238;SDS011;24035;48.900;9.188;2022-09-03T07:36:16;2.38;;;1.05;;
38238;SDS011;24035;48.900;9.188;2022-09-03T07:39:02;1.70;;;0.60;;
38238;SDS011;24035;48.900;9.188;2022-09-03T07:41:48;2.65;;;0.73;;
38238;SDS011;24035;48.900;9.188;2022-09-03T07:44:34;2.28;;;0.88;;
38238;SDS011;24035;48.900;9.188;2022-09-03T07:47:20;2.13;;;0.70;;
38238;SDS011;24035;48.900;9.188;2022-09-03T07:50:06;2.40;;;0.75;;
38238;SDS011;24035;48.900;9.188;2022-09-03T07:52:56;2.47;;;0.98;;
38238;SDS011;24035;48.900;9.188;2022-09-03T07:55:45;2.20;;;0.90;;
38238;SDS011;24035;48.900;9.188;2022-09-03T07:58:32;2.60;;;1.02;;
38238;SDS011;24035;48.900;9.188;2022-09-03T08:01:22;2.72;;;1.00;;
38238;SDS011;24035;48.900;9.188;2022-09-03T08:04:09;2.95;;;0.90;;
38238;SDS011;24035;48.900;9.188;2022-09-03T08:06:56;1.55;;;0.80;;
38238;SDS011;24035;48.900;9.188;2022-09-03T08:09:43;2.20;;;0.70;;
38238;SDS011;24035;48.900;9.188;2022-09-03T08:12:30;2.03;;;0.93;;
38238;SDS011;24035;48.900;9.188;2022-09-03T08:15:17;2.35;;;1.02;;
38238;SDS011;24035;48.900;9.188;2022-09-03T08:18:03;3.25;;;0.98;;
38238;SDS011;24035;48.900;9.188;2022-09-03T08:20:48;2.35;;;0.85;;
38238;SDS011;24035;48.900;9.188;2022-09-03T08:23:38;1.92;;;0.80;;
38238;SDS011;24035;48.900;9.188;2022-09-03T08:26:24;2.85;;;1.10;;
38238;SDS011;24035;48.900;9.188;2022-09-03T08:29:10;3.35;;;1.10;;
38238;SDS011;24035;48.900;9.188;2022-09-03T08:31:56;2.72;;;0.90;;
38238;SDS011;24035;48.900;9.188;2022-09-03T08:34:42;3.03;;;1.00;;
38238;SDS011;24035;48.900;9.188;2022-09-03T08:37:28;1.90;;;0.88;;
38238;SDS011;24035;48.900;9.188;2022-09-03T08:40:14;1.77;;;0.95;;
38238;SDS011;24035;48.900;9.188;2022-09-03T08:43:09;3.47;;;1.70;;
38238;SDS011;24035;48.900;9.188;2022-09-03T08:46:03;2.73;;;0.83;;
38238;SDS011;24035;48.900;9.188;2022-09-03T08:48:49;3.70;;;1.45;;
38238;SDS011;24035;48.900;9.188;2022-09-03T08:51:35;3.33;;;1.10;;
38238;SDS011;24035;48.900;9.188;2022-09-03T08:54:25;5.07;;;1.20;;
38238;SDS011;24035;48.900;9.188;2022-09-03T08:57:15;2.47;;;1.10;;
38238;SDS011;24035;48.900;9.188;2022-09-03T09:00:03;3.80;;;1.10;;
38238;SDS011;24035;48.900;9.188;2022-09-03T09:15:25;5.63;;;1.20;;
38238;SDS011;24035;48.900;9.188;2022-09-03T09:18:29;3.60;;;1.63;;
38238;SDS011;24035;48.900;9.188;2022-09-03T09:21:52;3.53;;;1.00;;
38238;SDS011;24035;48.900;9.188;2022-09-03T09:24:45;2.35;;;1.08;;
38238;SDS011;24035;48.900;9.188;2022-09-03T09:27:32;3.47;;;1.40;;
38238;SDS011;24035;48.900;9.188;2022-09-03T09:30:18;4.53;;;1.40;;
38238;SDS011;24035;48.900;9.188;2022-09-03T09:33:04;3.20;;;1.13;;
38238;SDS011;24035;48.900;9.188;2022-09-03T09:35:51;2.90;;;1.08;;
38238;SDS011;24035;48.900;9.188;2022-09-03T09:38:37;2.75;;;1.20;;
38238;SDS011;24035;48.900;9.188;2022-09-03T09:41:24;2.97;;;1.20;;
38238;SDS011;24035;48.900;9.188;2022-09-03T09:44:17;2.35;;;1.00;;
38238;SDS011;24035;48.900;9.188;2022-09-03T09:50:18;3.97;;;1.60;;
38238;SDS011;24035;48.900;9.188;2022-09-03T09:53:07;3.08;;;1.30;;
38238;SDS011;24035;48.900;9.188;2022-09-03T09:55:59;2.00;;;0.98;;
38238;SDS011;24035;48.900;9.188;2022-09-03T09:58:47;2.42;;;1.00;;
38238;SDS011;24035;48.900;9.188;2022-09-03T10:01:34;2.40;;;1.00;;
38238;SDS011;24035;48.900;9.188;2022-09-03T10:04:23;3.13;;;1.20;;
38238;SDS011;24035;48.900;9.188;2022-09-03T10:07:20;2.60;;;1.10;;
38238;SDS011;24035;48.900;9.188;2022-09-03T10:13:05;2.42;;;0.82;;
38238;SDS011;24035;48.900;9.188;2022-09-03T10:19:03;2.55;;;1.20;;
38238;SDS011;24035;48.900;9.188;2022-09-03T10:21:57;3.20;;;1.10;;
38238;SDS011;24035;48.900;9.188;2022-09-03T10:24:57;1.80;;;0.70;;
38238;SDS011;24035;48.900;9.188;2022-09-03T10:27:45;2.25;;;0.95;;
38238;SDS011;24035;48.900;9.188;2022-09-03T10:30:31;2.05;;;0.95;;
38238;SDS011;24035;48.900;9.188;2022-09-03T10:33:34;3.17;;;1.20;;
38238;SDS011;24035;48.900;9.188;2022-09-03T10:36:27;2.90;;;1.02;;
38238;SDS011;24035;48.900;9.188;2022-09-03T10:45:30;3.05;;;1.20;;
38238;SDS011;24035;48.900;9.188;2022-09-03T10:54:31;2.38;;;1.10;;
38238;SDS011;24035;48.900;9.188;2022-09-03T11:00:31;2.63;;;1.10;;
38238;SDS011;24035;48.900;9.188;2022-09-03T11:07:04;2.40;;;0.95;;
38238;SDS011;24035;48.900;9.188;2022-09-03T11:09:56;2.85;;;1.00;;
38238;SDS011;24035;48.900;9.188;2022-09-03T11:16:07;3.22;;;1.20;;
38238;SDS011;24035;48.900;9.188;2022-09-03T11:19:04;3.00;;;0.88;;
38238;SDS011;24035;48.900;9.188;2022-09-03T11:21:56;3.65;;;1.23;;
38238;SDS011;24035;48.900;9.188;2022-09-03T11:24:43;2.97;;;1.10;;
38238;SDS011;24035;48.900;9.188;2022-09-03T11:33:57;2.05;;;0.80;;
38238;SDS011;24035;48.900;9.188;2022-09-03T11:36:49;2.60;;;1.00;;
38238;SDS011;24035;48.900;9.188;2022-09-03T11:39:38;2.88;;;1.10;;
38238;SDS011;24035;48.900;9.188;2022-09-03T11:45:19;2.65;;;1.08;;
38238;SDS011;24035;48.900;9.188;2022-09-03T11:48:18;3.25;;;1.17;;
38238;SDS011;24035;48.900;9.188;2022-09-03T11:57:13;1.67;;;0.80;;
38238;SDS011;24035;48.900;9.188;2022-09-03T12:00:10;3.13;;;1.30;;
38238;SDS011;24035;48.900;9.188;2022-09-03T12:03:01;2.22;;;0.95;;
38238;SDS011;24035;48.900;9.188;2022-09-03T12:05:50;4.63;;;1.20;;
38238;SDS011;24035;48.900;9.188;2022-09-03T12:17:58;3.30;;;1.70;;
38238;SDS011;24035;48.900;9.188;2022-09-03T12:21:05;2.75;;;1.35;;
38238;SDS011;24035;48.900;9.188;2022-09-03T12:23:55;4.53;;;1.30;;
38238;SDS011;24035;48.900;9.188;2022-09-03T12:26:41;3.15;;;1.30;;
38238;SDS011;24035;48.900;9.188;2022-09-03T12:29:28;3.03;;;1.40;;
38238;SDS011;24035;48.900;9.188;2022-09-03T12:32:15;3.65;;;1.38;;
38238;SDS011;24035;48.900;9.188;2022-09-03T12:35:16;5.55;;;1.48;;
38238;SDS011;24035;48.900;9.188;2022-09-03T12:38:04;3.50;;;1.27;;
38238;SDS011;24035;48.900;9.188;2022-09-03T12:40:50;3.00;;;1.30;;
38238;SDS011;24035;48.900;9.188;2022-09-03T12:43:36;2.50;;;1.20;;
38238;SDS011;24035;48.900;9.188;2022-09-03T12:46:23;2.70;;;1.15;;
38238;SDS011;24035;48.900;9.188;2022-09-03T12:49:13;4.70;;;1.52;;
38238;SDS011;24035;48.900;9.188;2022-09-03T12:52:01;2.55;;;1.13;;
38238;SDS011;24035;48.900;9.188;2022-09-03T12:57:47;2.90;;;1.30;;
38238;SDS011;24035;48.900;9.188;2022-09-03T13:00:37;2.88;;;1.02;;
38238;SDS011;24035;48.900;9.188;2022-09-03T13:03:32;3.10;;;0.70;;
38238;SDS011;24035;48.900;9.188;2022-09-03T13:09:49;2.65;;;0.65;;
38238;SDS011;24035;48.900;9.188;2022-09-03T13:12:42;1.85;;;0.85;;
38238;SDS011;24035;48.900;9.188;2022-09-03T13:15:32;1.23;;;0.50;;
38238;SDS011;24035;48.900;9.188;2022-09-03T13:18:26;2.55;;;1.17;;
38238;SDS011;24035;48.900;9.188;2022-09-03T13:24:22;3.40;;;0.55;;
38238;SDS011;24035;48.900;9.188;2022-09-03T13:30:16;1.67;;;0.73;;
38238;SDS011;24035;48.900;9.188;2022-09-03T13:33:08;5.65;;;0.75;;
38238;SDS011;24035;48.900;9.188;2022-09-03T13:36:16;5.78;;;1.20;;
38238;SDS011;24035;48.900;9.188;2022-09-03T13:39:08;1.60;;;0.75;;
38238;SDS011;24035;48.900;9.188;2022-09-03T13:42:10;3.20;;;1.17;;
38238;SDS011;24035;48.900;9.188;2022-09-03T13:48:40;2.65;;;0.93;;
38238;SDS011;24035;48.900;9.188;2022-09-03T13:51:49;1.98;;;0.93;;
38238;SDS011;24035;48.900;9.188;2022-09-03T13:54:42;2.92;;;0.73;;
38238;SDS011;24035;48.900;9.188;2022-09-03T13:57:48;3.55;;;1.52;;
38238;SDS011;24035;48.900;9.188;2022-09-03T14:03:58;3.63;;;1.75;;
38238;SDS011;24035;48.900;9.188;2022-09-03T14:06:48;3.95;;;1.45;;
38238;SDS011;24035;48.900;9.188;2022-09-03T14:15:58;2.50;;;0.98;;
38238;SDS011;24035;48.900;9.188;2022-09-03T14:21:44;4.57;;;2.45;;
38238;SDS011;24035;48.900;9.188;2022-09-03T14:24:46;3.95;;;1.42;;
38238;SDS011;24035;48.900;9.188;2022-09-03T14:27:52;2.42;;;1.00;;
38238;SDS011;24035;48.900;9.188;2022-09-03T14:36:52;3.20;;;1.00;;
38238;SDS011;24035;48.900;9.188;2022-09-03T14:39:53;2.42;;;0.90;;
38238;SDS011;24035;48.900;9.188;2022-09-03T15:00:45;2.10;;;0.85;;
38238;SDS011;24035;48.900;9.188;2022-09-03T15:03:43;2.42;;;1.15;;
38238;SDS011;24035;48.900;9.188;2022-09-03T15:07:02;2.70;;;1.10;;
38238;SDS011;24035;48.900;9.188;2022-09-03T15:19:53;3.38;;;1.02;;
38238;SDS011;24035;48.900;9.188;2022-09-03T15:35:44;3.22;;;1.10;;
38238;SDS011;24035;48.900;9.188;2022-09-03T15:41:42;2.08;;;0.85;;
38238;SDS011;24035;48.900;9.188;2022-09-03T15:44:48;4.50;;;0.70;;
38238;SDS011;24035;48.900;9.188;2022-09-03T15:54:09;1.98;;;0.73;;
38238;SDS011;24035;48.900;9.188;2022-09-03T15:57:20;3.70;;;1.15;;
38238;SDS011;24035;48.900;9.188;2022-09-03T16:00:19;2.38;;;0.88;;
38238;SDS011;24035;48.900;9.188;2022-09-03T16:03:08;2.45;;;0.80;;
38238;SDS011;24035;48.900;9.188;2022-09-03T16:06:01;2.50;;;1.02;;
38238;SDS011;24035;48.900;9.188;2022-09-03T16:08:54;4.60;;;1.08;;
38238;SDS011;24035;48.900;9.188;2022-09-03T16:14:57;2.00;;;0.80;;
38238;SDS011;24035;48.900;9.188;2022-09-03T16:20:54;2.58;;;0.85;;
38238;SDS011;24035;48.900;9.188;2022-09-03T16:23:52;4.38;;;0.90;;
38238;SDS011;24035;48.900;9.188;2022-09-03T16:27:14;2.42;;;1.05;;
38238;SDS011;24035;48.900;9.188;2022-09-03T16:30:09;2.22;;;1.05;;
38238;SDS011;24035;48.900;9.188;2022-09-03T16:33:00;1.77;;;0.75;;
38238;SDS011;24035;48.900;9.188;2022-09-03T16:38:52;1.60;;;0.60;;
38238;SDS011;24035;48.900;9.188;2022-09-03T16:45:11;2.33;;;1.23;;
38238;SDS011;24035;48.900;9.188;2022-09-03T16:48:31;2.22;;;0.90;;
38238;SDS011;24035;48.900;9.188;2022-09-03T16:51:26;2.65;;;1.02;;
38238;SDS011;24035;48.900;9.188;2022-09-03T16:54:39;2.97;;;1.05;;
38238;SDS011;24035;48.900;9.188;2022-09-03T17:07:39;3.22;;;1.50;;
38238;SDS011;24035;48.900;9.188;2022-09-03T17:16:41;3.88;;;1.20;;
38238;SDS011;24035;48.900;9.188;2022-09-03T17:20:08;3.90;;;1.10;;
38238;SDS011;24035;48.900;9.188;2022-09-03T17:23:02;3.75;;;0.90;;
38238;SDS011;24035;48.900;9.188;2022-09-03T17:26:10;2.45;;;0.70;;
38238;SDS011;24035;48.900;9.188;2022-09-03T17:39:00;2.72;;;0.90;;
38238;SDS011;24035;48.900;9.188;2022-09-03T17:41:59;2.38;;;0.90;;
38238;SDS011;24035;48.900;9.188;2022-09-03T17:50:57;2.58;;;0.98;;
38238;SDS011;24035;48.900;9.188;2022-09-03T17:53:59;1.65;;;0.68;;
38238;SDS011;24035;48.900;9.188;2022-09-03T18:00:26;3.20;;;1.20;;
38238;SDS011;24035;48.900;9.188;2022-09-03T18:03:38;2.22;;;0.88;;
38238;SDS011;24035;48.900;9.188;2022-09-03T18:06:35;3.60;;;0.93;;
38238;SDS011;24035;48.900;9.188;2022-09-03T18:15:48;3.17;;;1.30;;
38238;SDS011;24035;48.900;9.188;2022-09-03T18:18:43;2.72;;;1.27;;
38238;SDS011;24035;48.900;9.188;2022-09-03T18:21:35;3.67;;;1.13;;
38238;SDS011;24035;48.900;9.188;2022-09-03T18:24:52;2.90;;;0.93;;
38238;SDS011;24035;48.900;9.188;2022-09-03T18:28:02;2.92;;;0.90;;
38238;SDS011;24035;48.900;9.188;2022-09-03T18:31:11;9.13;;;1.00;;
38238;SDS011;24035;48.900;9.188;2022-09-03T18:34:19;2.72;;;1.05;;
38238;SDS011;24035;48.900;9.188;2022-09-03T18:37:29;3.17;;;1.17;;
38238;SDS011;24035;48.900;9.188;2022-09-03T18:40:35;3.83;;;1.17;;
38238;SDS011;24035;48.900;9.188;2022-09-03T18:50:26;3.17;;;1.30;;
38238;SDS011;24035;48.900;9.188;2022-09-03T18:53:51;5.95;;;1.35;;
38238;SDS011;24035;48.900;9.188;2022-09-03T18:57:19;2.83;;;1.10;;
38238;SDS011;24035;48.900;9.188;2022-09-03T19:00:29;3.58;;;1.65;;
38238;SDS011;24035;48.900;9.188;2022-09-03T19:03:41;2.92;;;1.13;;
38238;SDS011;24035;48.900;9.188;2022-09-03T19:07:18;4.00;;;1.40;;
38238;SDS011;24035;48.900;9.188;2022-09-03T19:10:55;3.88;;;1.40;;
38238;SDS011;24035;48.900;9.188;2022-09-03T19:24:37;3.47;;;1.25;;
38238;SDS011;24035;48.900;9.188;2022-09-03T19:38:25;3.92;;;1.40;;
38238;SDS011;24035;48.900;9.188;2022-09-03T19:41:36;5.75;;;1.70;;
38238;SDS011;24035;48.900;9.188;2022-09-03T19:44:58;2.95;;;1.20;;
38238;SDS011;24035;48.900;9.188;2022-09-03T19:48:20;3.92;;;1.50;;
38238;SDS011;24035;48.900;9.188;2022-09-03T19:55:18;4.15;;;1.65;;
38238;SDS011;24035;48.900;9.188;2022-09-03T19:58:28;6.45;;;1.70;;
38238;SDS011;24035;48.900;9.188;2022-09-03T20:01:36;2.53;;;1.10;;
38238;SDS011;24035;48.900;9.188;2022-09-03T20:04:45;5.13;;;1.60;;
38238;SDS011;24035;48.900;9.188;2022-09-03T20:07:54;5.68;;;1.45;;
38238;SDS011;24035;48.900;9.188;2022-09-03T20:11:01;4.05;;;1.20;;
38238;SDS011;24035;48.900;9.188;2022-09-03T20:13:49;3.42;;;1.45;;
38238;SDS011;24035;48.900;9.188;2022-09-03T20:20:17;2.70;;;1.20;;
38238;SDS011;24035;48.900;9.188;2022-09-03T20:23:12;4.53;;;1.58;;
38238;SDS011;24035;48.900;9.188;2022-09-03T20:33:06;2.88;;;1.10;;
38238;SDS011;24035;48.900;9.188;2022-09-03T20:36:12;2.30;;;0.93;;
38238;SDS011;24035;48.900;9.188;2022-09-03T20:46:23;2.80;;;1.05;;
38238;SDS011;24035;48.900;9.188;2022-09-03T21:01:26;2.75;;;1.00;;
38238;SDS011;24035;48.900;9.188;2022-09-03T21:04:20;2.67;;;0.98;;
38238;SDS011;24035;48.900;9.188;2022-09-03T21:10:28;2.55;;;1.15;;
38238;SDS011;24035;48.900;9.188;2022-09-03T21:19:55;2.22;;;0.90;;
38238;SDS011;24035;48.900;9.188;2022-09-03T21:25:59;2.45;;;0.93;;
38238;SDS011;24035;48.900;9.188;2022-09-03T21:28:58;2.28;;;0.80;;
38238;SDS011;24035;48.900;9.188;2022-09-03T21:40:56;2.22;;;0.90;;
38238;SDS011;24035;48.900;9.188;2022-09-03T21:47:01;3.47;;;1.00;;
38238;SDS011;24035;48.900;9.188;2022-09-03T21:50:04;2.05;;;0.88;;
38238;SDS011;24035;48.900;9.188;2022-09-03T21:53:08;3.97;;;1.10;;
38238;SDS011;24035;48.900;9.188;2022-09-03T22:01:24;2.92;;;1.00;;
38238;SDS011;24035;48.900;9.188;2022-09-03T22:04:07;3.70;;;1.10;;
38238;SDS011;24035;48.900;9.188;2022-09-03T22:06:43;2.65;;;1.30;;
38238;SDS011;24035;48.900;9.188;2022-09-03T22:10:12;4.07;;;1.13;;
38238;SDS011;24035;48.900;9.188;2022-09-03T22:13:03;3.13;;;1.25;;
38238;SDS011;24035;48.900;9.188;2022-09-03T22:15:54;2.75;;;0.98;;
38238;SDS011;24035;48.900;9.188;2022-09-03T22:18:45;2.90;;;1.27;;
38238;SDS011;24035;48.900;9.188;2022-09-03T22:24:42;3.03;;;1.10;;
38238;SDS011;24035;48.900;9.188;2022-09-03T22:27:44;4.65;;;1.05;;
38238;SDS011;24035;48.900;9.188;2022-09-03T22:30:44;3.17;;;1.40;;
38238;SDS011;24035;48.900;9.188;2022-09-03T22:33:40;4.90;;;1.10;;
38238;SDS011;24035;48.900;9.188;2022-09-03T22:36:43;2.38;;;0.93;;
38238;SDS011;24035;48.900;9.188;2022-09-03T22:39:38;4.15;;;1.80;;
38238;SDS011;24035;48.900;9.188;2022-09-03T22:42:37;3.20;;;1.27;;
38238;SDS011;24035;48.900;9.188;2022-09-03T22:51:54;3.17;;;1.38;;
38238;SDS011;24035;48.900;9.188;2022-09-03T22:55:02;6.60;;;1.88;;
38238;SDS011;24035;48.900;9.188;2022-09-03T22:58:14;3.10;;;1.27;;
38238;SDS011;24035;48.900;9.188;2022-09-03T23:01:08;3.03;;;1.40;;
38238;SDS011;24035;48.900;9.188;2022-09-03T23:04:18;3.10;;;1.50;;
38238;SDS011;24035;48.900;9.188;2022-09-03T23:07:32;4.68;;;1.40;;
38238;SDS011;24035;48.900;9.188;2022-09-03T23:13:45;3.70;;;1.52;;
38238;SDS011;24035;48.900;9.188;2022-09-03T23:16:37;4.15;;;1.35;;
38238;SDS011;24035;48.900;9.188;2022-09-03T23:19:28;4.13;;;1.45;;
38238;SDS011;24035;48.900;9.188;2022-09-03T23:22:28;4.32;;;1.42;;